Time;durP1;ratioP1;P1;durP2;ratioP2;P2;SDS_P1;SDS_P2;PMS_P1;PMS_P2;Temp;Humidity;BMP_temperature;BMP_pressure;BME280_temperature;BME280_humidity;BME280_pressure;Samples;Min_cycle;Max_cycle;Signal;HPM_P1;HPM_P2
2022/04/28 00:01:28;;;;;;;16.75;13.77;;;;;;;10.35;79.05;101167.66;5089321;28;20032;-73
2022/04/28 00:03:54;;;;;;;22.20;14.95;;;;;;;10.30;79.38;101164.84;5091114;28;20088;-73
2022/04/28 00:06:19;;;;;;;18.50;13.68;;;;;;;10.29;79.00;101164.03;5045224;28;20067;-74
2022/04/28 00:08:45;;;;;;;22.23;16.05;;;;;;;10.30;79.23;101170.41;5045250;28;20023;-74
2022/04/28 00:11:11;;;;;;;24.85;16.00;;;;;;;10.20;80.62;101165.66;5097295;28;20086;-73
2022/04/28 00:13:37;;;;;;;23.63;16.27;;;;;;;10.14;80.65;101168.69;5096750;28;20130;-73
2022/04/28 00:16:03;;;;;;;25.92;16.73;;;;;;;10.18;79.92;101167.03;5096628;28;20035;-74
2022/04/28 00:18:29;;;;;;;28.55;17.80;;;;;;;10.14;80.94;101168.69;5029088;28;20035;-73
2022/04/28 00:20:54;;;;;;;23.90;17.02;;;;;;;10.11;81.18;101166.47;5041929;28;20043;-72
2022/04/28 00:23:19;;;;;;;28.15;16.90;;;;;;;10.05;81.49;101157.31;5060836;28;20525;-72
2022/04/28 00:25:45;;;;;;;21.33;14.50;;;;;;;10.11;78.94;101155.38;5028869;28;20028;-73
2022/04/28 00:28:10;;;;;;;19.23;14.57;;;;;;;10.06;79.68;101150.66;5061757;28;20031;-73
2022/04/28 00:30:36;;;;;;;23.20;15.23;;;;;;;10.05;79.95;101149.81;5077947;28;20063;-73
2022/04/28 00:33:02;;;;;;;22.33;16.23;;;;;;;10.01;80.96;101142.31;5063679;28;20534;-74
2022/04/28 00:35:27;;;;;;;24.85;16.58;;;;;;;10.01;80.40;101145.09;5096135;28;20070;-73
2022/04/28 00:37:53;;;;;;;23.73;18.35;;;;;;;9.95;81.04;101146.19;5096508;28;20032;-74
2022/04/28 00:40:18;;;;;;;23.60;17.98;;;;;;;9.90;82.23;101149.78;5078485;28;20099;-74
2022/04/28 00:42:44;;;;;;;27.70;17.92;;;;;;;9.91;82.25;101157.00;5061905;28;20472;-73
2022/04/28 00:45:09;;;;;;;27.73;17.58;;;;;;;9.93;81.41;101154.78;5096312;28;20039;-73
2022/04/28 00:53:03;;;;;;;24.38;17.65;;;;;;;9.95;82.64;101152.56;5081201;28;20032;-73
2022/04/28 00:55:28;;;;;;;29.10;19.50;;;;;;;9.91;83.17;101162.53;5044753;28;20049;-73
2022/04/28 00:57:54;;;;;;;26.60;18.00;;;;;;;9.91;81.79;101151.44;5058274;28;20032;-74
2022/04/28 01:00:19;;;;;;;26.90;18.88;;;;;;;9.96;82.49;101168.09;5054052;28;20041;-73
2022/04/28 01:02:45;;;;;;;27.67;19.77;;;;;;;9.94;83.26;101158.38;5064696;28;20032;-73
2022/04/28 01:05:10;;;;;;;26.90;19.05;;;;;;;9.95;81.82;101163.69;5095835;28;20090;-73
2022/04/28 01:07:36;;;;;;;30.25;19.85;;;;;;;9.93;82.64;101160.34;5061432;28;20031;-73
2022/04/28 01:10:03;;;;;;;24.40;17.98;;;;;;;9.92;82.42;101164.22;5057868;28;20029;-74
2022/04/28 01:12:28;;;;;;;25.42;18.95;;;;;;;9.91;82.37;101168.09;5059829;28;20024;-73
2022/04/28 01:14:54;;;;;;;26.45;18.98;;;;;;;9.93;83.42;101168.66;5058034;28;20059;-73
2022/04/28 01:17:21;;;;;;;27.88;19.77;;;;;;;9.91;83.97;101165.31;5063320;28;20043;-73
2022/04/28 01:19:47;;;;;;;26.02;18.05;;;;;;;9.91;82.10;101162.53;5096158;28;20531;-73
2022/04/28 01:22:12;;;;;;;28.15;18.60;;;;;;;9.91;82.82;101159.75;5044986;28;20121;-73
2022/04/28 01:24:37;;;;;;;29.75;20.42;;;;;;;9.89;83.99;101153.69;5096060;28;20499;-74
2022/04/28 01:27:05;;;;;;;26.88;18.02;;;;;;;9.90;82.29;101147.00;5096260;28;20051;-73
2022/04/28 01:29:33;;;;;;;27.13;19.38;;;;;;;9.91;82.37;101164.50;5047923;28;20036;-73
2022/04/28 01:31:59;;;;;;;29.45;19.98;;;;;;;9.88;83.33;101160.31;5077449;28;20056;-73
2022/04/28 01:34:25;;;;;;;29.73;20.00;;;;;;;9.88;84.14;101165.03;5060807;28;20028;-73
2022/04/28 01:36:50;;;;;;;25.83;18.55;;;;;;;9.87;82.70;101155.06;5061462;28;20032;-73
2022/04/28 01:39:16;;;;;;;30.73;19.52;;;;;;;9.84;84.03;101162.81;5057817;28;20028;-73
2022/04/28 01:41:42;;;;;;;31.17;20.88;;;;;;;9.84;83.25;101160.03;5061368;28;20039;-72
2022/04/28 01:44:08;;;;;;;27.92;20.40;;;;;;;9.81;84.26;101156.97;5058040;28;20432;-72
2022/04/28 01:46:33;;;;;;;26.13;19.75;;;;;;;9.83;83.36;101157.53;5074376;28;20029;-73
2022/04/28 01:48:59;;;;;;;25.92;18.38;;;;;;;9.81;83.32;101157.81;5027979;28;20024;-73
2022/04/28 01:56:53;;;;;;;26.55;19.20;;;;;;;9.76;83.67;101159.75;5095757;28;20048;-73
2022/04/28 01:59:18;;;;;;;25.52;18.75;;;;;;;9.80;82.96;101155.31;5077730;28;20082;-73
2022/04/28 02:01:44;;;;;;;24.40;18.50;;;;;;;9.84;82.74;101153.66;5067788;28;20473;-73
2022/04/28 02:04:09;;;;;;;28.40;18.90;;;;;;;9.82;83.79;101153.09;5094867;28;20581;-73
2022/04/28 02:06:35;;;;;;;26.40;19.20;;;;;;;9.80;83.16;101158.06;5081112;28;20046;-73
2022/04/28 02:09:00;;;;;;;32.17;19.63;;;;;;;9.81;82.96;101156.97;5080407;28;20036;-72
2022/04/28 02:11:26;;;;;;;28.58;19.35;;;;;;;9.81;83.10;101154.22;5099391;28;20384;-73
2022/04/28 02:13:51;;;;;;;29.90;19.60;;;;;;;9.81;82.95;101159.75;5099040;28;20032;-73
2022/04/28 02:16:17;;;;;;;31.63;19.90;;;;;;;9.81;84.14;101156.97;5090485;28;20025;-73
2022/04/28 02:18:43;;;;;;;28.45;18.70;;;;;;;9.83;83.25;101160.31;5077572;28;20059;-73
2022/04/28 02:21:09;;;;;;;31.67;19.35;;;;;;;9.77;83.38;101155.84;5064105;28;20032;-73
2022/04/28 02:23:34;;;;;;;32.72;19.80;;;;;;;9.79;84.12;101160.03;5100135;28;20107;-73
2022/04/28 02:25:59;;;;;;;29.25;19.40;;;;;;;9.79;83.65;101164.75;5091117;28;20031;-73
2022/04/28 02:28:25;;;;;;;28.42;19.20;;;;;;;9.76;83.08;101159.75;5098843;28;20503;-73
2022/04/28 02:30:51;;;;;;;27.80;19.20;;;;;;;9.74;82.98;101154.44;5063695;28;20067;-73
2022/04/28 02:33:18;;;;;;;27.27;18.50;;;;;;;9.76;83.76;101162.50;5098773;28;20469;-73
2022/04/28 02:35:44;;;;;;;29.80;19.90;;;;;;;9.75;84.10;101158.06;5098486;28;20035;-73
2022/04/28 02:38:09;;;;;;;27.50;20.00;;;;;;;9.72;83.76;101164.16;5098677;28;20028;-73
2022/04/28 02:40:35;;;;;;;28.77;18.13;;;;;;;9.75;82.87;101166.38;5098749;28;20054;-73
2022/04/28 02:43:00;;;;;;;29.35;19.20;;;;;;;9.75;82.91;101166.38;5080565;28;20036;-73
2022/04/28 02:45:44;;;;;;;33.72;20.52;;;;;;;9.75;83.72;101170.00;5098431;28;20024;-73
2022/04/28 02:48:09;;;;;;;30.10;20.33;;;;;;;9.73;83.83;101160.28;5098557;28;20043;-72
2022/04/28 02:50:35;;;;;;;27.67;19.48;;;;;;;9.72;83.55;101166.91;5098264;28;20028;-72
2022/04/28 02:53:01;;;;;;;30.50;19.85;;;;;;;9.74;84.12;101161.94;5098470;28;20031;-72
2022/04/28 02:55:27;;;;;;;30.48;20.35;;;;;;;9.69;84.46;101167.47;5098285;28;20377;-73
2022/04/28 02:57:52;;;;;;;32.78;20.20;;;;;;;9.70;84.21;101169.16;5098499;28;20545;-73
2022/04/28 03:00:18;;;;;;;32.83;21.33;;;;;;;9.67;84.16;101167.75;5080264;28;20025;-73
2022/04/28 03:02:44;;;;;;;29.45;19.77;;;;;;;9.67;84.26;101164.13;5066415;28;20032;-73
2022/04/28 03:05:09;;;;;;;30.67;21.05;;;;;;;9.68;84.57;101168.59;5062797;28;20032;-73
2022/04/28 03:10:49;;;;;;;30.00;20.23;;;;;;;9.63;85.16;101164.66;5066288;28;20033;-73
2022/04/28 03:13:16;;;;;;;32.53;21.20;;;;;;;9.59;84.64;101163.56;5107138;28;20555;-73
2022/04/28 03:15:41;;;;;;;30.27;21.17;;;;;;;9.57;85.10;101163.00;5061179;28;20048;-73
2022/04/28 03:18:07;;;;;;;31.17;21.20;;;;;;;9.59;85.07;101155.25;5063200;28;20024;-72
2022/04/28 03:20:32;;;;;;;28.58;20.08;;;;;;;9.61;84.40;101158.59;5099733;28;20032;-72
2022/04/28 03:22:58;;;;;;;34.20;20.90;;;;;;;9.62;83.80;101156.66;5079984;28;20043;-73
2022/04/28 03:25:23;;;;;;;36.58;21.70;;;;;;;9.58;84.96;101153.59;5079635;28;20032;-73
2022/04/28 03:27:49;;;;;;;35.65;22.40;;;;;;;9.60;84.97;101156.91;5097850;28;20032;-73
2022/04/28 03:30:14;;;;;;;34.00;21.38;;;;;;;9.58;84.54;101153.59;5067546;28;20036;-73
2022/04/28 03:32:42;;;;;;;35.17;22.40;;;;;;;9.58;84.77;101153.59;5097649;28;20042;-74
2022/04/28 03:35:10;;;;;;;32.95;21.73;;;;;;;9.57;85.31;101153.84;5097331;28;20096;-74
2022/04/28 03:37:36;;;;;;;35.92;23.27;;;;;;;9.53;85.24;101161.06;5079893;28;20034;-74
2022/04/28 03:40:01;;;;;;;34.20;22.77;;;;;;;9.53;85.05;101161.06;5097509;28;20442;-74
2022/04/28 03:42:28;;;;;;;38.08;22.00;;;;;;;9.50;85.63;101156.03;5097548;28;20024;-74
2022/04/28 03:44:54;;;;;;;35.10;22.67;;;;;;;9.48;85.65;101152.72;5079039;28;20031;-73
2022/04/28 03:47:20;;;;;;;33.30;23.48;;;;;;;9.50;85.63;101158.78;5092368;28;20040;-74
2022/04/28 03:49:46;;;;;;;33.47;22.27;;;;;;;9.47;84.92;101151.88;5079284;28;20032;-74
2022/04/28 03:52:12;;;;;;;33.38;22.20;;;;;;;9.44;85.51;101157.94;5062946;28;20032;-73
2022/04/28 03:54:37;;;;;;;33.53;22.02;;;;;;;9.42;85.61;101165.72;5062112;28;20082;-74
2022/04/28 03:57:03;;;;;;;37.25;23.67;;;;;;;9.40;85.67;101165.16;5045977;28;20032;-74
2022/04/28 03:59:28;;;;;;;39.33;24.35;;;;;;;9.34;86.90;101164.28;5062242;28;20027;-73
2022/04/28 04:01:54;;;;;;;35.03;23.90;;;;;;;9.35;86.18;101159.56;5067917;28;20389;-73
2022/04/28 04:04:19;;;;;;;37.25;23.45;;;;;;;9.34;86.18;101164.28;5094347;28;20035;-73
2022/04/28 04:06:45;;;;;;;34.45;22.77;;;;;;;9.33;86.00;101170.09;5078766;28;20067;-73
2022/04/28 04:09:10;;;;;;;35.85;24.70;;;;;;;9.32;86.20;101168.44;5049936;28;20058;-73
2022/04/28 04:11:36;;;;;;;41.15;24.30;;;;;;;9.30;86.66;101176.19;5088075;28;20081;-73
2022/04/28 04:14:01;;;;;;;35.80;24.50;;;;;;;9.27;87.30;101173.94;5062054;28;20031;-73
2022/04/28 04:16:27;;;;;;;39.90;23.98;;;;;;;9.30;86.63;101181.72;5066350;28;20035;-74
2022/04/28 04:18:52;;;;;;;34.55;23.05;;;;;;;9.25;86.74;101181.69;5044108;28;20035;-73
2022/04/28 04:21:20;;;;;;;40.70;25.02;;;;;;;9.25;86.15;101185.31;5033369;28;20078;-73
2022/04/28 04:23:46;;;;;;;36.45;24.30;;;;;;;9.27;86.40;101183.09;5045724;28;20039;-74
2022/04/28 04:26:11;;;;;;;36.78;23.92;;;;;;;9.25;87.16;101187.22;5078140;28;20032;-74
2022/04/28 04:28:37;;;;;;;39.05;24.20;;;;;;;9.20;87.83;101187.22;5096589;28;20538;-73
2022/04/28 04:33:46;;;;;;;39.40;25.35;;;;;;;9.16;88.06;101195.22;5088259;28;20028;-73
2022/04/28 04:36:12;;;;;;;38.67;25.10;;;;;;;9.14;88.43;101195.50;5096132;28;20031;-73
2022/04/28 04:38:38;;;;;;;38.30;25.65;;;;;;;9.11;88.80;101197.97;5078529;28;20024;-73
2022/04/28 04:41:05;;;;;;;39.70;25.50;;;;;;;9.11;88.82;101198.81;5096427;28;20028;-73
2022/04/28 04:43:31;;;;;;;41.28;26.10;;;;;;;9.07;89.43;101197.66;5078693;28;20061;-73
2022/04/28 04:45:56;;;;;;;38.85;25.17;;;;;;;9.08;88.62;101199.34;5061353;28;20024;-73
2022/04/28 04:48:22;;;;;;;41.90;25.88;;;;;;;9.08;88.82;101202.13;5078443;28;20028;-73
2022/04/28 04:50:48;;;;;;;38.13;24.35;;;;;;;9.08;88.68;101204.91;5096055;28;20032;-73
2022/04/28 04:53:14;;;;;;;40.53;25.23;;;;;;;9.08;89.14;101209.56;5096347;28;20043;-73
2022/04/28 04:55:39;;;;;;;40.55;25.77;;;;;;;9.07;88.74;101203.22;5061383;28;20079;-73
2022/04/28 04:58:05;;;;;;;36.17;24.90;;;;;;;9.07;88.23;101203.22;5078352;28;20032;-73
2022/04/28 05:00:31;;;;;;;36.97;23.92;;;;;;;9.12;87.39;101208.78;5078385;28;20028;-73
2022/04/28 05:02:56;;;;;;;36.70;24.27;;;;;;;9.12;88.25;101205.19;5073338;28;20058;-73
2022/04/28 05:05:21;;;;;;;42.72;24.98;;;;;;;9.13;88.24;101216.00;5041055;28;20035;-73
2022/04/28 05:07:47;;;;;;;41.47;25.40;;;;;;;9.15;88.28;101212.97;5105467;28;20051;-73
2022/04/28 05:10:12;;;;;;;38.28;24.08;;;;;;;9.13;87.45;101218.75;5054036;28;20051;-73
2022/04/28 05:12:38;;;;;;;36.80;24.42;;;;;;;9.13;88.12;101224.31;5061966;28;20580;-73
2022/04/28 05:15:04;;;;;;;35.40;24.02;;;;;;;9.15;87.59;101216.56;5048803;28;20037;-73
2022/04/28 05:17:29;;;;;;;38.58;25.23;;;;;;;9.15;87.98;101227.66;5057177;28;20024;-73
2022/04/28 05:19:58;;;;;;;38.25;23.63;;;;;;;9.21;86.46;101231.28;5077795;28;20403;-73
2022/04/28 05:22:24;;;;;;;38.60;23.70;;;;;;;9.21;86.50;101233.22;5073067;28;20034;-74
2022/04/28 05:24:49;;;;;;;34.97;21.98;;;;;;;9.23;85.64;101234.63;5078022;28;20032;-73
2022/04/28 05:27:15;;;;;;;38.85;23.88;;;;;;;9.21;86.63;101236.81;5078188;28;20058;-73
2022/04/28 05:29:40;;;;;;;39.00;25.45;;;;;;;9.20;86.98;101231.56;5061224;28;20384;-73
2022/04/28 05:32:06;;;;;;;37.25;23.73;;;;;;;9.24;86.78;101246.56;5041119;28;20029;-74
2022/04/28 05:34:32;;;;;;;41.72;25.15;;;;;;;9.21;87.34;101247.09;5058775;28;20092;-72
2022/04/28 05:37:09;;;;;;;38.85;24.98;;;;;;;9.22;86.77;101260.69;5095864;28;20024;-73
2022/04/28 05:39:35;;;;;;;40.35;24.92;;;;;;;9.21;87.06;101258.16;5048321;28;20028;-73
2022/04/28 05:42:01;;;;;;;37.03;23.52;;;;;;;9.16;87.85;101262.59;5099616;28;20722;-73
2022/04/28 05:47:11;;;;;;;44.95;25.83;;;;;;;9.15;87.96;101266.44;5070020;28;20035;-73
2022/04/28 05:49:36;;;;;;;40.45;23.90;;;;;;;9.15;88.18;101276.69;5064338;28;20028;-73
2022/04/28 05:52:02;;;;;;;42.42;25.10;;;;;;;9.12;88.86;101274.47;5047030;28;20549;-71
2022/04/28 05:54:28;;;;;;;38.90;23.83;;;;;;;9.15;87.60;101277.53;5081622;28;20070;-70
2022/04/28 05:56:53;;;;;;;43.78;25.25;;;;;;;9.12;88.89;101288.31;5061245;28;20041;-70
2022/04/28 05:59:19;;;;;;;39.63;25.52;;;;;;;9.12;88.69;101280.84;5063000;28;20043;-70
2022/04/28 06:01:44;;;;;;;41.40;25.75;;;;;;;9.07;89.51;101279.97;5089442;28;20032;-70
2022/04/28 06:04:10;;;;;;;48.15;27.00;;;;;;;9.08;89.46;101287.16;5077205;28;20032;-70
2022/04/28 06:06:36;;;;;;;46.08;28.38;;;;;;;9.09;89.15;101284.16;5061167;28;20032;-70
2022/04/28 06:09:02;;;;;;;42.03;26.38;;;;;;;9.11;89.09;101303.25;5098055;27;20031;-70
2022/04/28 06:11:27;;;;;;;46.80;26.38;;;;;;;9.10;88.87;101299.66;5047850;28;20020;-70
2022/04/28 06:13:53;;;;;;;38.25;25.45;;;;;;;9.12;89.19;101305.78;5047693;28;20078;-70
2022/04/28 06:16:18;;;;;;;42.05;25.70;;;;;;;9.09;89.72;101306.31;5072271;28;20039;-70
2022/04/28 06:18:47;;;;;;;41.95;25.40;;;;;;;9.11;89.42;101317.97;5061111;28;20058;-74
2022/04/28 06:21:12;;;;;;;40.63;25.38;;;;;;;9.15;88.91;101321.03;5044619;28;20097;-74
2022/04/28 06:23:38;;;;;;;43.05;23.95;;;;;;;9.14;89.08;101319.38;5047647;28;20465;-71
2022/04/28 06:26:03;;;;;;;42.95;25.20;;;;;;;9.13;89.13;101321.28;5067533;28;20569;-70
2022/04/28 06:28:29;;;;;;;46.60;25.80;;;;;;;9.16;89.17;101329.09;5048957;28;20543;-70
2022/04/28 06:30:54;;;;;;;38.97;24.40;;;;;;;9.19;88.88;101327.72;5063895;28;20028;-70
2022/04/28 06:33:20;;;;;;;40.30;25.33;;;;;;;9.20;88.81;101334.13;5098551;28;20086;-71
2022/04/28 06:35:46;;;;;;;41.38;25.88;;;;;;;9.19;89.14;101333.25;5080547;28;20020;-71
2022/04/28 06:38:11;;;;;;;39.17;24.77;;;;;;;9.22;88.89;101337.44;5064009;28;20101;-70
2022/04/28 06:40:37;;;;;;;39.63;24.73;;;;;;;9.24;88.98;101338.84;5064024;28;20039;-70
2022/04/28 06:43:02;;;;;;;40.05;25.17;;;;;;;9.24;89.36;101343.56;5060395;28;20103;-71
2022/04/28 06:45:28;;;;;;;42.17;24.33;;;;;;;9.28;88.90;101344.72;5038232;28;20388;-71
2022/04/28 06:47:54;;;;;;;42.72;25.85;;;;;;;9.26;89.55;101349.69;5060250;28;20078;-70
2022/04/28 06:50:19;;;;;;;41.65;24.98;;;;;;;9.28;88.87;101344.72;5076874;28;20033;-70
2022/04/28 06:52:45;;;;;;;40.10;24.52;;;;;;;9.30;89.10;101353.56;5092431;28;20020;-71
2022/04/28 06:55:10;;;;;;;37.97;23.85;;;;;;;9.33;89.06;101361.38;5072864;28;20067;-71
2022/04/28 06:57:36;;;;;;;39.03;24.98;;;;;;;9.36;88.64;101360.84;5043487;28;20119;-71
2022/04/28 07:00:03;;;;;;;41.13;25.20;;;;;;;9.35;88.88;101362.78;5067990;28;20104;-71
2022/04/28 07:02:30;;;;;;;40.92;24.45;;;;;;;9.37;89.01;101363.34;5050160;28;20039;-71
2022/04/28 07:04:55;;;;;;;40.27;25.23;;;;;;;9.40;89.34;101360.03;5099809;28;20028;-71
2022/04/28 07:07:21;;;;;;;40.00;25.35;;;;;;;9.44;88.54;101370.59;5050734;28;20043;-71
2022/04/28 07:09:48;;;;;;;40.20;24.85;;;;;;;9.42;88.93;101370.88;5042768;28;20554;-70
2022/04/28 07:12:13;;;;;;;38.22;24.65;;;;;;;9.46;88.53;101372.00;5080093;28;20063;-71
2022/04/28 07:14:39;;;;;;;41.28;25.05;;;;;;;9.49;88.19;101376.19;5079907;28;20035;-71
2022/04/28 07:17:04;;;;;;;40.08;23.50;;;;;;;9.52;88.17;101376.47;5079650;28;20384;-71
2022/04/28 07:19:29;;;;;;;41.58;24.00;;;;;;;9.57;87.69;101376.53;5046185;28;20077;-71
2022/04/28 07:21:55;;;;;;;39.80;25.02;;;;;;;9.59;88.18;101382.66;5079635;28;20031;-71
2022/04/28 07:24:21;;;;;;;39.85;23.05;;;;;;;9.61;87.73;101377.69;5079992;28;20036;-71
2022/04/28 07:26:46;;;;;;;39.25;24.25;;;;;;;9.66;87.80;101387.94;5062796;28;20495;-70
2022/04/28 07:29:12;;;;;;;34.65;22.98;;;;;;;9.69;86.83;101392.13;5046203;28;20053;-71
2022/04/28 07:31:37;;;;;;;40.92;24.25;;;;;;;9.69;87.75;101392.13;5079343;28;20024;-71
2022/04/28 07:34:03;;;;;;;40.33;23.30;;;;;;;9.71;87.46;101398.25;5062631;28;20035;-70
2022/04/28 07:36:29;;;;;;;42.03;23.77;;;;;;;9.75;86.52;101393.84;5046195;28;20474;-71
2022/04/28 07:38:54;;;;;;;36.40;22.70;;;;;;;9.78;87.05;101393.34;5029607;28;20036;-71
2022/04/28 07:41:20;;;;;;;40.65;22.60;;;;;;;9.82;87.16;101402.78;5079511;28;20028;-71
2022/04/28 07:43:45;;;;;;;37.80;24.05;;;;;;;9.85;86.46;101407.78;5063132;28;20039;-71
2022/04/28 07:46:11;;;;;;;43.95;23.98;;;;;;;9.90;86.24;101399.50;5079253;28;20029;-71
2022/04/28 07:48:36;;;;;;;40.60;23.15;;;;;;;9.96;86.24;101409.53;5059583;28;20033;-70
2022/04/28 07:51:03;;;;;;;41.35;23.25;;;;;;;10.01;86.72;101411.50;5052163;28;20028;-70
2022/04/28 07:53:28;;;;;;;37.00;23.08;;;;;;;10.01;85.67;101405.97;5062643;28;20427;-70
2022/04/28 07:58:37;;;;;;;41.05;23.88;;;;;;;10.06;84.71;101408.75;5047606;28;20491;-70
2022/04/28 08:01:04;;;;;;;40.55;22.02;;;;;;;10.14;85.18;101412.94;5056029;28;20036;-70
2022/04/28 08:03:29;;;;;;;34.30;23.02;;;;;;;10.16;85.25;101408.78;5034682;28;20575;-71
2022/04/28 08:05:55;;;;;;;37.03;23.70;;;;;;;10.21;84.71;101406.06;5058510;28;20080;-71
2022/04/28 08:08:20;;;;;;;37.88;23.33;;;;;;;10.27;85.32;101412.50;5040830;28;20536;-71
2022/04/28 08:10:47;;;;;;;38.05;23.42;;;;;;;10.27;84.80;101413.31;5058753;28;20024;-71
2022/04/28 08:13:12;;;;;;;39.97;22.38;;;;;;;10.33;84.55;101413.34;5042496;28;20052;-71
2022/04/28 08:15:38;;;;;;;37.42;23.50;;;;;;;10.37;84.90;101425.63;5041899;28;20630;-70
2022/04/28 08:18:04;;;;;;;39.83;23.20;;;;;;;10.41;84.63;101426.72;5058798;28;20515;-71
2022/04/28 08:20:30;;;;;;;42.20;23.02;;;;;;;10.43;84.31;101422.56;5025267;28;20028;-70
2022/04/28 08:22:55;;;;;;;37.83;23.05;;;;;;;10.47;84.25;101425.63;5033739;28;20059;-71
2022/04/28 08:25:21;;;;;;;39.30;23.10;;;;;;;10.56;84.68;101424.03;5084801;28;20473;-71
2022/04/28 08:27:46;;;;;;;41.15;24.20;;;;;;;10.59;84.83;101425.44;5058712;28;20036;-71
2022/04/28 08:30:12;;;;;;;35.65;21.90;;;;;;;10.66;83.58;101421.28;5045120;28;20024;-71
2022/04/28 08:32:38;;;;;;;35.42;23.05;;;;;;;10.71;84.17;101420.47;5058408;28;20115;-71
2022/04/28 08:35:04;;;;;;;37.58;22.02;;;;;;;10.75;83.56;101416.00;5063052;28;20051;-71
2022/04/28 08:37:29;;;;;;;40.72;24.15;;;;;;;10.81;83.68;101419.66;5050485;28;20039;-71
2022/04/28 08:39:55;;;;;;;36.10;22.33;;;;;;;10.87;82.77;101427.75;5058396;28;20087;-71
2022/04/28 08:42:21;;;;;;;35.42;22.02;;;;;;;10.91;82.72;101420.50;5050398;28;20059;-71
2022/04/28 08:44:46;;;;;;;36.65;22.92;;;;;;;10.93;82.41;101417.47;5040836;28;20020;-71
2022/04/28 08:47:13;;;;;;;37.53;23.15;;;;;;;10.95;82.83;101418.03;5074870;28;20028;-71
2022/04/28 08:49:42;;;;;;;33.30;22.00;;;;;;;11.00;82.19;101409.69;5033403;28;20036;-71
2022/04/28 08:52:08;;;;;;;37.53;23.30;;;;;;;10.99;81.91;101409.97;5051001;28;20028;-71
2022/04/28 08:54:36;;;;;;;34.22;22.10;;;;;;;11.02;82.76;101409.44;5054137;28;20433;-71
2022/04/28 08:57:02;;;;;;;39.03;24.30;;;;;;;11.08;82.65;101414.72;5051309;28;20448;-71
2022/04/28 08:59:27;;;;;;;36.58;21.40;;;;;;;11.13;82.19;101409.16;5030590;28;20040;-71
2022/04/28 09:01:53;;;;;;;37.05;22.52;;;;;;;11.18;82.23;101411.13;5074403;28;20033;-71
2022/04/28 09:04:18;;;;;;;37.90;21.63;;;;;;;11.26;81.59;101418.09;5040650;28;20055;-71
2022/04/28 09:06:44;;;;;;;37.35;21.77;;;;;;;11.34;81.74;101417.53;5042129;28;20032;-71
2022/04/28 09:09:15;;;;;;;34.53;21.63;;;;;;;11.43;80.23;101428.94;5060244;28;20492;-71
2022/04/28 09:11:42;;;;;;;34.35;21.65;;;;;;;11.53;80.25;101431.72;5042944;28;20039;-71
2022/04/28 09:14:18;;;;;;;37.50;21.80;;;;;;;11.66;79.73;101431.16;5029305;28;20032;-71
2022/04/28 09:17:03;;;;;;;33.80;21.63;;;;;;;11.79;79.65;101435.34;5042134;28;20028;-71
2022/04/28 09:19:39;;;;;;;32.58;20.52;;;;;;;11.95;80.59;101441.72;5041658;28;20437;-71
2022/04/28 09:22:08;;;;;;;33.17;21.95;;;;;;;12.10;80.08;101435.31;5065742;28;20033;-71
2022/04/28 09:24:34;;;;;;;31.23;20.40;;;;;;;12.25;79.00;101435.25;5080095;28;20040;-71
2022/04/28 09:26:59;;;;;;;33.67;21.20;;;;;;;12.43;79.00;101444.97;5061799;28;20035;-71
2022/04/28 09:29:28;;;;;;;33.90;22.33;;;;;;;12.59;77.56;101438.22;5045122;28;20048;-71
2022/04/28 09:31:54;;;;;;;32.83;21.10;;;;;;;12.84;76.45;101439.22;5058125;28;20040;-71
2022/04/28 09:34:21;;;;;;;31.98;20.13;;;;;;;13.11;76.20;101434.03;5028259;28;20041;-71
2022/04/28 09:36:47;;;;;;;35.25;22.27;;;;;;;13.30;76.59;101436.19;5045111;28;20024;-71
2022/04/28 09:44:50;;;;;;;31.55;21.02;;;;;;;13.93;72.37;101435.34;5065804;28;20032;-72
2022/04/28 09:47:19;;;;;;;29.00;19.70;;;;;;;14.11;71.75;101436.59;5044922;28;20059;-72
2022/04/28 09:49:58;;;;;;;32.88;20.13;;;;;;;14.27;70.84;101429.72;5044799;28;20116;-72
2022/04/28 09:52:26;;;;;;;25.92;19.02;;;;;;;14.41;69.62;101433.44;5027705;28;20530;-72
2022/04/28 09:54:57;;;;;;;30.20;18.17;;;;;;;14.49;69.28;101435.59;5064948;28;20060;-72
2022/04/28 09:57:22;;;;;;;30.08;19.70;;;;;;;14.59;68.80;101433.81;5058460;28;20098;-71
2022/04/28 09:59:49;;;;;;;32.97;20.17;;;;;;;14.66;69.26;101434.31;5064356;28;20032;-72
2022/04/28 10:02:19;;;;;;;28.70;18.90;;;;;;;14.75;68.69;101427.75;5044753;28;20424;-72
2022/04/28 10:04:45;;;;;;;29.55;18.08;;;;;;;14.80;68.08;101435.25;5073697;28;20028;-72
2022/04/28 10:07:11;;;;;;;27.40;17.58;;;;;;;14.88;68.02;101426.19;5096571;28;20089;-72
2022/04/28 10:09:37;;;;;;;28.90;19.23;;;;;;;14.99;67.99;101432.47;5068602;28;20450;-71
2022/04/28 10:12:06;;;;;;;26.80;18.27;;;;;;;15.08;68.05;101429.81;5065406;28;20031;-71
2022/04/28 10:14:31;;;;;;;24.10;18.02;;;;;;;15.16;68.45;101435.56;5081515;28;20031;-71
2022/04/28 10:16:57;;;;;;;25.00;17.33;;;;;;;15.26;67.16;101423.38;5061184;28;20024;-72
2022/04/28 10:19:24;;;;;;;27.75;17.77;;;;;;;15.40;67.18;101427.06;5069421;28;20032;-72
2022/04/28 10:21:58;;;;;;;27.63;17.25;;;;;;;15.51;66.11;101422.13;5059059;28;20701;-72
2022/04/28 10:32:56;;;;;;;22.48;16.00;;;;;;;16.14;64.81;101419.94;5082972;28;20069;-69
2022/04/28 10:35:53;;;;;;;25.95;17.13;;;;;;;16.29;63.53;101414.84;5063771;28;20036;-69
2022/04/28 10:38:31;;;;;;;23.17;16.50;;;;;;;16.41;63.59;101421.91;5053155;28;20081;-70
2022/04/28 10:41:03;;;;;;;24.23;17.10;;;;;;;16.56;62.30;101426.41;5069772;28;20568;-69
2022/04/28 10:43:32;;;;;;;26.20;16.65;;;;;;;16.68;63.97;101427.50;5093112;28;20042;-70
2022/04/28 10:46:22;;;;;;;23.90;16.08;;;;;;;16.77;63.43;101424.00;5110902;28;20081;-71
2022/04/28 10:48:52;;;;;;;19.90;15.15;;;;;;;16.89;60.67;101424.31;5073852;28;20042;-71
2022/04/28 10:51:26;;;;;;;19.48;15.32;;;;;;;17.02;61.02;101426.28;5047785;28;20589;-71
2022/04/28 10:54:11;;;;;;;25.10;16.05;;;;;;;17.01;60.81;101426.56;5081561;28;20388;-71
2022/04/28 10:56:40;;;;;;;20.55;15.00;;;;;;;17.10;60.39;101431.09;5090409;28;20048;-71
2022/04/28 10:59:34;;;;;;;21.35;15.00;;;;;;;17.08;60.03;101433.41;5085258;28;20387;-71
2022/04/28 11:02:09;;;;;;;20.65;14.15;;;;;;;17.19;60.36;101431.22;5090345;28;20051;-71
2022/04/28 11:04:35;;;;;;;20.65;15.23;;;;;;;17.19;59.55;101436.81;5099790;28;20035;-71
2022/04/28 11:07:05;;;;;;;22.40;14.75;;;;;;;17.23;59.03;101437.84;5070428;28;20046;-71
2022/04/28 11:09:35;;;;;;;21.45;15.27;;;;;;;17.27;59.31;101446.44;5084345;28;20040;-71
2022/04/28 11:12:11;;;;;;;21.15;15.18;;;;;;;17.22;58.68;101443.75;5077175;28;20031;-71
2022/04/28 11:14:47;;;;;;;17.75;13.43;;;;;;;17.28;58.83;101443.34;5052229;28;20073;-71
2022/04/28 11:17:13;;;;;;;21.25;14.98;;;;;;;17.29;59.35;101444.16;5047987;28;20021;-71
2022/04/28 11:19:40;;;;;;;20.58;14.52;;;;;;;17.27;59.02;101444.47;5090682;28;20498;-71
2022/04/28 11:22:05;;;;;;;19.85;13.38;;;;;;;17.27;59.16;101444.47;5063253;28;20059;-71
2022/04/28 11:24:32;;;;;;;17.25;12.60;;;;;;;17.34;59.83;101452.47;5094157;27;20031;-71
2022/04/28 11:27:01;;;;;;;18.48;13.82;;;;;;;17.40;58.22;101443.59;5098040;28;20035;-71
2022/04/28 11:29:28;;;;;;;17.85;13.85;;;;;;;17.40;58.58;101448.38;5080984;28;20058;-71
2022/04/28 11:31:53;;;;;;;15.80;12.23;;;;;;;17.49;59.64;101452.09;5082962;28;20554;-71
2022/04/28 11:34:19;;;;;;;18.60;12.75;;;;;;;17.52;57.39;101457.06;5078994;28;20032;-71
2022/04/28 11:36:45;;;;;;;17.52;12.77;;;;;;;17.51;56.63;101452.59;5092067;28;20103;-73
2022/04/28 11:39:10;;;;;;;17.02;12.65;;;;;;;17.55;57.06;101448.03;5074805;28;20411;-73
2022/04/28 11:41:39;;;;;;;16.20;13.13;;;;;;;17.55;56.59;101448.03;5113374;28;20054;-73
2022/04/28 11:44:10;;;;;;;17.27;11.85;;;;;;;17.53;55.75;101447.50;5079520;28;20118;-73
2022/04/28 11:46:42;;;;;;;17.10;12.13;;;;;;;17.54;56.25;101440.72;5071447;27;20521;-73
2022/04/28 11:49:07;;;;;;;15.18;11.25;;;;;;;17.49;53.70;101446.47;5105545;28;20028;-73